Terminal Aerodrome Forecast
Issued by NWS Brownsville, TX

Home | Current Version | Previous Version | Text Only | Print | Product List | Glossary On
Versions: 1 2 3 4 5 6 7 8 9 10 11 12 13 14 15 16 17 18 19 20 21 22 23 24 25 26 27 28 29 30
799
FTUS44 KBRO 051206 CCA
TAFMFE
TAF COR
KMFE 051206Z 0512/0612 31010KT P6SM VCSH OVC015
      TEMPO 0512/0515 31015G25KT 3SM TSRA OVC007CB
     FM051500 30010KT P6SM VCSH OVC020
     FM051700 31011KT P6SM FEW035 BKN100
     FM052200 33007KT P6SM SKC
     FM060100 VRB04KT P6SM SKC=

USA.gov is the U.S. government's official web portal to all federal, state and local government web resources and services.